Time;durP1;ratioP1;P1;durP2;ratioP2;P2;SDS_P1;SDS_P2;PMS_P1;PMS_P2;Temp;Humidity;BMP_temperature;BMP_pressure;BME280_temperature;BME280_humidity;BME280_pressure;Samples;Min_cycle;Max_cycle;Signal;HPM_P1;HPM_P2
2023/10/29 00:01:34;;;;;;;2.20;2.10;;;10.10;99.90;;;;;;5007279;28;20286;-65
2023/10/29 00:04:01;;;;;;;1.90;1.80;;;10.00;99.90;;;;;;5012127;28;20286;-65
2023/10/29 00:06:28;;;;;;;1.70;1.60;;;10.10;99.90;;;;;;5027190;28;20223;-66
2023/10/29 00:08:56;;;;;;;1.93;1.83;;;10.10;99.90;;;;;;5011431;28;20606;-65
2023/10/29 00:11:24;;;;;;;1.67;1.57;;;10.10;99.90;;;;;;5013118;28;20279;-65
2023/10/29 00:13:51;;;;;;;1.80;1.70;;;10.10;99.90;;;;;;5013201;28;20320;-65
2023/10/29 00:16:18;;;;;;;2.60;1.77;;;10.10;99.90;;;;;;5011748;28;20697;-65
2023/10/29 00:18:45;;;;;;;2.57;2.13;;;10.10;99.90;;;;;;5012376;28;20286;-65
2023/10/29 00:21:12;;;;;;;1.70;1.60;;;10.10;99.90;;;;;;5012096;28;20217;-65
2023/10/29 00:23:39;;;;;;;2.27;2.17;;;10.10;99.90;;;;;;5012317;28;20600;-66
2023/10/29 00:26:06;;;;;;;2.27;2.07;;;10.20;99.90;;;;;;5012137;28;20210;-65
2023/10/29 00:28:35;;;;;;;2.70;2.50;;;10.20;99.90;;;;;;5012731;28;20287;-64
2023/10/29 00:31:02;;;;;;;2.60;2.40;;;10.20;99.90;;;;;;5011633;28;20195;-65
2023/10/29 00:33:29;;;;;;;2.37;2.17;;;10.10;99.90;;;;;;5009674;28;20277;-65
2023/10/29 00:35:56;;;;;;;2.57;2.30;;;10.10;99.90;;;;;;5010659;28;20197;-65
2023/10/29 00:38:24;;;;;;;2.20;2.10;;;10.10;99.90;;;;;;5012647;28;20223;-65
2023/10/29 00:40:52;;;;;;;2.60;2.40;;;10.00;99.90;;;;;;5012646;28;20295;-65
2023/10/29 00:43:19;;;;;;;2.50;2.30;;;10.00;99.90;;;;;;5011091;28;20244;-65
2023/10/29 00:45:54;;;;;;;1.90;1.80;;;10.00;99.90;;;;;;5011030;28;20316;-66
2023/10/29 00:48:21;;;;;;;2.47;2.27;;;10.10;99.90;;;;;;5011240;28;20263;-66
2023/10/29 00:50:48;;;;;;;3.07;2.33;;;10.10;99.90;;;;;;5010639;28;20223;-66
2023/10/29 00:53:16;;;;;;;2.50;2.10;;;10.10;99.90;;;;;;5014097;28;20727;-65
2023/10/29 00:55:43;;;;;;;2.20;2.00;;;10.00;99.90;;;;;;5018707;28;20605;-66
2023/10/29 00:58:11;;;;;;;1.80;1.70;;;10.10;99.90;;;;;;5011248;28;20692;-65
2023/10/29 01:00:39;;;;;;;2.63;2.40;;;10.10;99.90;;;;;;5009952;28;20270;-66
2023/10/29 01:03:07;;;;;;;2.20;2.00;;;10.10;99.90;;;;;;5013520;28;20620;-65
2023/10/29 01:05:35;;;;;;;2.23;2.00;;;10.10;99.90;;;;;;5003502;28;20222;-65
2023/10/29 01:08:05;;;;;;;2.17;1.67;;;10.10;99.90;;;;;;5010050;28;20231;-66
2023/10/29 01:10:32;;;;;;;2.10;1.90;;;10.10;99.90;;;;;;5012038;28;20201;-66
2023/10/29 01:12:59;;;;;;;1.60;1.50;;;10.10;99.90;;;;;;5011575;28;20271;-66
2023/10/29 01:15:27;;;;;;;1.70;1.60;;;10.10;99.90;;;;;;5010391;28;20208;-65
2023/10/29 01:17:54;;;;;;;2.13;1.93;;;10.10;99.90;;;;;;5010476;28;20203;-65
2023/10/29 01:20:22;;;;;;;1.80;1.70;;;10.10;99.90;;;;;;5011174;28;20207;-66
2023/10/29 01:22:49;;;;;;;2.33;2.00;;;10.00;99.90;;;;;;5010143;28;20223;-65
2023/10/29 01:25:17;;;;;;;2.30;1.80;;;10.00;99.90;;;;;;5011100;28;20215;-66
2023/10/29 01:27:44;;;;;;;2.07;1.80;;;10.00;99.90;;;;;;5011875;28;20205;-65
2023/10/29 01:30:12;;;;;;;1.77;1.67;;;10.00;99.90;;;;;;5010397;28;20273;-65
2023/10/29 01:32:39;;;;;;;2.43;1.90;;;9.90;99.90;;;;;;5009626;28;20192;-65
2023/10/29 01:35:07;;;;;;;2.30;2.10;;;9.80;99.90;;;;;;5011178;28;20234;-65
2023/10/29 01:37:36;;;;;;;3.30;2.37;;;9.80;99.90;;;;;;5011549;28;20195;-64
2023/10/29 01:40:03;;;;;;;2.00;1.87;;;9.80;99.90;;;;;;5009971;28;20200;-65
2023/10/29 01:42:30;;;;;;;1.70;1.60;;;9.80;99.90;;;;;;5011502;28;20689;-66
2023/10/29 01:44:57;;;;;;;2.33;2.10;;;9.70;99.90;;;;;;5009963;28;20206;-65
2023/10/29 01:47:24;;;;;;;1.90;1.80;;;9.70;99.90;;;;;;5011615;28;20191;-65
2023/10/29 01:49:51;;;;;;;1.70;1.60;;;9.70;99.90;;;;;;5011078;28;20213;-65
2023/10/29 01:52:18;;;;;;;1.60;1.50;;;9.70;99.90;;;;;;5008453;28;20268;-65
2023/10/29 01:54:47;;;;;;;2.17;1.97;;;9.60;99.90;;;;;;5010287;28;20209;-65
2023/10/29 01:57:14;;;;;;;2.20;1.80;;;9.60;99.90;;;;;;5009587;28;20227;-66
2023/10/29 01:59:41;;;;;;;1.53;1.43;;;9.60;99.90;;;;;;5010168;28;20225;-66
2023/10/29 02:02:10;;;;;;;1.70;1.60;;;9.60;99.90;;;;;;5011584;28;20199;-66
2023/10/29 02:04:37;;;;;;;1.70;1.60;;;9.60;99.90;;;;;;5011816;28;20671;-66
2023/10/29 02:07:04;;;;;;;3.17;2.60;;;9.60;99.90;;;;;;5013144;28;20681;-64
2023/10/29 02:09:31;;;;;;;2.60;2.40;;;9.50;99.90;;;;;;5007042;28;20214;-66
2023/10/29 02:12:00;;;;;;;2.33;2.00;;;9.60;99.90;;;;;;5030386;28;20202;-66
2023/10/29 02:14:28;;;;;;;1.93;1.77;;;9.60;99.90;;;;;;5011997;28;20655;-65
2023/10/29 02:16:55;;;;;;;3.10;1.70;;;9.60;99.90;;;;;;5008326;28;20212;-66
2023/10/29 02:19:23;;;;;;;1.47;1.37;;;9.60;99.90;;;;;;5030463;28;20201;-66
2023/10/29 02:21:54;;;;;;;1.73;1.63;;;9.60;99.90;;;;;;5029217;28;20203;-66
2023/10/29 02:24:21;;;;;;;1.70;1.60;;;9.50;99.90;;;;;;5030394;28;20623;-65
2023/10/29 02:26:48;;;;;;;2.97;2.30;;;9.60;99.90;;;;;;5028716;28;20202;-65
2023/10/29 02:29:16;;;;;;;3.27;1.73;;;9.60;99.90;;;;;;5021674;28;20641;-65
2023/10/29 02:31:43;;;;;;;3.10;2.27;;;9.60;99.90;;;;;;5028591;28;20223;-65
2023/10/29 02:34:11;;;;;;;2.63;2.43;;;9.60;99.90;;;;;;5030271;28;20304;-66
2023/10/29 02:36:38;;;;;;;2.23;2.03;;;9.50;99.90;;;;;;5029201;28;20201;-65
2023/10/29 02:39:07;;;;;;;1.90;1.80;;;9.50;99.90;;;;;;5030254;28;20203;-66
2023/10/29 02:41:34;;;;;;;2.90;1.87;;;9.60;99.90;;;;;;5029635;28;20657;-66
2023/10/29 02:44:02;;;;;;;4.07;2.03;;;9.50;99.90;;;;;;5030263;28;20289;-66
2023/10/29 02:46:30;;;;;;;2.43;2.10;;;9.50;99.90;;;;;;5028640;28;20286;-66
2023/10/29 02:48:57;;;;;;;2.10;1.93;;;9.50;99.90;;;;;;5011733;28;20573;-66
2023/10/29 02:51:24;;;;;;;1.73;1.63;;;9.50;99.90;;;;;;5010966;28;20262;-66
2023/10/29 02:53:51;;;;;;;2.77;2.47;;;9.40;99.90;;;;;;5029200;28;20322;-66
2023/10/29 02:56:20;;;;;;;2.30;2.20;;;9.50;99.90;;;;;;5018546;28;20213;-63
2023/10/29 02:58:47;;;;;;;2.00;1.90;;;9.50;99.90;;;;;;5012037;28;20279;-66
2023/10/29 03:01:15;;;;;;;3.33;1.97;;;9.50;99.90;;;;;;5005560;28;20208;-66
2023/10/29 03:03:44;;;;;;;1.77;1.63;;;9.50;99.90;;;;;;5013681;28;20214;-66
2023/10/29 03:06:11;;;;;;;1.70;1.60;;;9.50;99.90;;;;;;5028925;28;20216;-66
2023/10/29 03:08:39;;;;;;;1.60;1.50;;;9.50;99.90;;;;;;5024541;28;20645;-66
2023/10/29 03:11:06;;;;;;;2.47;1.83;;;9.50;99.90;;;;;;5026864;28;20305;-66
2023/10/29 03:13:36;;;;;;;1.70;1.60;;;9.50;99.90;;;;;;5029570;28;20749;-66
2023/10/29 03:16:03;;;;;;;1.83;1.73;;;9.40;99.90;;;;;;5010216;28;20535;-66
2023/10/29 03:18:30;;;;;;;1.80;1.70;;;9.40;99.90;;;;;;5011379;28;20217;-66
2023/10/29 03:20:58;;;;;;;1.70;1.60;;;9.40;99.90;;;;;;5028671;28;20331;-66
2023/10/29 03:23:25;;;;;;;1.20;1.20;;;9.50;99.90;;;;;;5011218;28;20597;-66
2023/10/29 03:25:52;;;;;;;1.50;1.40;;;9.50;99.90;;;;;;5010853;28;20263;-66
2023/10/29 03:28:19;;;;;;;1.70;1.60;;;9.50;99.90;;;;;;5007779;28;20199;-66
2023/10/29 03:30:47;;;;;;;1.53;1.43;;;9.50;99.90;;;;;;5027615;28;20277;-66
2023/10/29 03:33:14;;;;;;;1.37;1.30;;;9.50;99.90;;;;;;5029259;28;20189;-66
2023/10/29 03:35:41;;;;;;;2.13;1.93;;;9.50;99.90;;;;;;5028584;28;20639;-66
2023/10/29 03:38:08;;;;;;;1.50;1.40;;;9.50;99.90;;;;;;5021856;28;20221;-66
2023/10/29 03:40:37;;;;;;;1.83;1.60;;;9.50;99.90;;;;;;5009063;28;20233;-66
2023/10/29 03:43:04;;;;;;;1.70;1.60;;;9.40;99.90;;;;;;5029045;28;20225;-66
2023/10/29 03:45:33;;;;;;;1.67;1.57;;;9.40;99.90;;;;;;5027805;28;20203;-66
2023/10/29 03:48:02;;;;;;;1.63;1.53;;;9.40;99.90;;;;;;5010882;28;20203;-66
2023/10/29 03:50:29;;;;;;;1.70;1.60;;;9.40;99.90;;;;;;5028256;28;20194;-66
2023/10/29 03:52:56;;;;;;;1.80;1.70;;;9.40;99.90;;;;;;5028372;28;20202;-66
2023/10/29 03:55:24;;;;;;;1.93;1.63;;;9.40;99.90;;;;;;5010235;28;20206;-66
2023/10/29 03:57:51;;;;;;;1.60;1.50;;;9.40;99.90;;;;;;5029044;28;20274;-66
2023/10/29 04:00:18;;;;;;;1.60;1.50;;;9.40;99.90;;;;;;5028558;28;20265;-65
2023/10/29 04:02:45;;;;;;;1.57;1.47;;;9.40;99.90;;;;;;5028009;28;20199;-66
2023/10/29 04:05:13;;;;;;;1.57;1.47;;;9.40;99.90;;;;;;5028197;28;20685;-65
2023/10/29 04:07:41;;;;;;;2.23;1.70;;;9.40;99.90;;;;;;5028328;28;20285;-65
2023/10/29 04:10:09;;;;;;;1.60;1.50;;;9.40;99.90;;;;;;5007108;28;20721;-65
2023/10/29 04:12:37;;;;;;;1.60;1.50;;;9.40;99.90;;;;;;5008777;28;20209;-65
2023/10/29 04:15:05;;;;;;;1.67;1.50;;;9.50;99.90;;;;;;5027138;28;20199;-65
2023/10/29 04:17:33;;;;;;;1.87;1.60;;;9.50;99.90;;;;;;5028204;28;20722;-65
2023/10/29 04:20:00;;;;;;;2.53;1.67;;;9.50;99.90;;;;;;5028261;28;20252;-65
2023/10/29 04:22:28;;;;;;;1.97;1.87;;;9.40;99.90;;;;;;5010420;28;20220;-65
2023/10/29 04:24:55;;;;;;;2.03;1.90;;;9.40;99.90;;;;;;5027807;28;20302;-65
2023/10/29 04:27:22;;;;;;;2.07;1.93;;;9.40;99.90;;;;;;5010827;28;20224;-66
2023/10/29 04:29:49;;;;;;;2.47;2.17;;;9.40;99.90;;;;;;5027676;28;20276;-65
2023/10/29 04:32:16;;;;;;;1.97;1.73;;;9.30;99.90;;;;;;5028313;28;20227;-66
2023/10/29 04:34:44;;;;;;;2.03;1.90;;;9.30;99.90;;;;;;5031106;28;20198;-65
2023/10/29 04:37:11;;;;;;;2.33;1.87;;;9.30;99.90;;;;;;5027712;28;20268;-65
2023/10/29 04:39:42;;;;;;;1.70;1.60;;;9.40;99.90;;;;;;5028601;28;20199;-65
2023/10/29 04:42:09;;;;;;;2.43;2.17;;;9.40;99.90;;;;;;5027842;28;20197;-65
2023/10/29 04:44:36;;;;;;;1.83;1.73;;;9.30;99.90;;;;;;5028122;28;20246;-65
2023/10/29 04:47:03;;;;;;;1.77;1.67;;;9.30;99.90;;;;;;5027027;28;20316;-65
2023/10/29 04:49:31;;;;;;;1.90;1.80;;;9.30;99.90;;;;;;5030601;28;20197;-65
2023/10/29 04:51:58;;;;;;;2.00;1.90;;;9.30;99.90;;;;;;5030418;28;20217;-65
2023/10/29 04:54:25;;;;;;;2.47;1.70;;;9.30;99.90;;;;;;5019937;28;20251;-66
2023/10/29 04:56:53;;;;;;;1.90;1.50;;;9.20;99.90;;;;;;5031009;28;20241;-65
2023/10/29 04:59:20;;;;;;;1.63;1.53;;;9.20;99.90;;;;;;5028230;28;20666;-65
2023/10/29 05:01:47;;;;;;;1.63;1.53;;;9.20;99.90;;;;;;5029481;28;20289;-65
2023/10/29 05:04:14;;;;;;;1.80;1.67;;;9.20;99.90;;;;;;5031030;28;20639;-65
2023/10/29 05:06:41;;;;;;;1.77;1.63;;;9.30;99.90;;;;;;5029957;28;20201;-65
2023/10/29 05:09:09;;;;;;;1.80;1.70;;;9.30;99.90;;;;;;5032313;28;20206;-64
2023/10/29 05:11:36;;;;;;;2.57;2.37;;;9.30;99.90;;;;;;5031405;28;20609;-65
2023/10/29 05:14:05;;;;;;;2.53;2.33;;;9.30;99.90;;;;;;5032102;28;20755;-65
2023/10/29 05:16:32;;;;;;;3.00;2.17;;;9.30;99.90;;;;;;5012740;28;20276;-65
2023/10/29 05:19:02;;;;;;;2.20;2.00;;;9.30;99.90;;;;;;5031280;28;20189;-65
2023/10/29 05:21:29;;;;;;;2.83;2.20;;;9.30;99.90;;;;;;5031277;28;20201;-65
2023/10/29 05:23:56;;;;;;;1.97;1.77;;;9.30;99.90;;;;;;5031104;28;20633;-65
2023/10/29 05:26:23;;;;;;;1.97;1.60;;;9.40;99.90;;;;;;5010286;28;20308;-65
2023/10/29 05:28:51;;;;;;;2.37;2.00;;;9.40;99.90;;;;;;5031672;28;20230;-64
2023/10/29 05:31:19;;;;;;;3.37;2.90;;;9.40;99.90;;;;;;5029365;28;20669;-65
2023/10/29 05:33:46;;;;;;;2.60;2.40;;;9.40;99.90;;;;;;5030817;28;20341;-66
2023/10/29 05:36:13;;;;;;;2.30;2.10;;;9.30;99.90;;;;;;5030683;28;20273;-65
2023/10/29 05:38:40;;;;;;;4.50;3.13;;;9.40;99.90;;;;;;5031241;28;20660;-65
2023/10/29 05:41:07;;;;;;;5.23;4.20;;;9.40;99.90;;;;;;5030959;28;20296;-65
2023/10/29 05:43:36;;;;;;;7.67;4.80;;;9.30;99.90;;;;;;5030960;28;20206;-64
2023/10/29 05:46:04;;;;;;;5.53;4.20;;;9.30;99.90;;;;;;5011667;28;20237;-65
2023/10/29 05:48:32;;;;;;;4.57;3.70;;;9.30;99.90;;;;;;5031820;28;20515;-65
2023/10/29 05:50:59;;;;;;;5.67;4.23;;;9.30;99.90;;;;;;5032439;28;20718;-65
2023/10/29 05:53:26;;;;;;;3.83;3.53;;;9.20;99.90;;;;;;5012080;28;20679;-65
2023/10/29 05:55:53;;;;;;;4.13;3.33;;;9.10;99.90;;;;;;5030093;28;20272;-65
2023/10/29 05:58:20;;;;;;;3.30;2.77;;;9.10;99.90;;;;;;5030148;28;20202;-65
2023/10/29 06:00:49;;;;;;;3.10;2.50;;;9.20;99.90;;;;;;5029206;28;20242;-65
2023/10/29 06:03:16;;;;;;;3.20;2.97;;;9.10;99.90;;;;;;5028673;28;20249;-65
2023/10/29 06:05:44;;;;;;;3.17;2.90;;;9.10;99.90;;;;;;5029605;28;20214;-65
2023/10/29 06:08:11;;;;;;;3.70;3.40;;;9.10;99.90;;;;;;5030376;28;20325;-65
2023/10/29 06:10:38;;;;;;;3.47;3.20;;;9.10;99.90;;;;;;5030619;28;20255;-65
2023/10/29 06:13:05;;;;;;;2.50;2.30;;;9.00;99.90;;;;;;5030296;28;20291;-65
2023/10/29 06:15:32;;;;;;;2.30;2.20;;;9.10;99.90;;;;;;5028951;28;20194;-65
2023/10/29 06:17:59;;;;;;;1.93;1.83;;;9.10;99.90;;;;;;5030625;28;20241;-65
2023/10/29 06:20:27;;;;;;;1.87;1.77;;;9.10;99.90;;;;;;5029927;28;20659;-65
2023/10/29 06:22:55;;;;;;;3.27;2.93;;;9.10;99.90;;;;;;5029461;28;20652;-65
2023/10/29 06:25:22;;;;;;;2.60;2.40;;;9.10;99.90;;;;;;5029650;28;20245;-65
2023/10/29 06:27:49;;;;;;;3.77;3.20;;;9.00;99.90;;;;;;5030625;28;20202;-65
2023/10/29 06:30:17;;;;;;;3.10;2.80;;;9.00;99.90;;;;;;5028935;28;20197;-65
2023/10/29 06:32:45;;;;;;;3.40;2.80;;;9.00;99.90;;;;;;5012000;28;20244;-65
2023/10/29 06:35:12;;;;;;;3.30;2.50;;;9.00;99.90;;;;;;5028927;28;20195;-65
2023/10/29 06:37:39;;;;;;;2.50;2.30;;;9.00;99.90;;;;;;5029804;28;20286;-65
2023/10/29 06:40:09;;;;;;;2.70;2.50;;;9.00;99.90;;;;;;5029923;28;20521;-65
2023/10/29 06:42:37;;;;;;;2.90;2.60;;;9.00;99.90;;;;;;5027845;28;20323;-65
2023/10/29 06:45:06;;;;;;;3.50;2.60;;;9.00;99.90;;;;;;5019874;28;20222;-65
2023/10/29 06:47:33;;;;;;;3.80;3.20;;;9.00;99.90;;;;;;5029529;28;20276;-65
2023/10/29 06:50:00;;;;;;;2.97;2.60;;;9.10;99.90;;;;;;5011230;28;20214;-65
2023/10/29 06:52:27;;;;;;;3.97;3.33;;;9.00;99.90;;;;;;5029484;28;20201;-65
2023/10/29 06:54:54;;;;;;;4.13;3.63;;;9.10;99.90;;;;;;5028283;28;20270;-65
2023/10/29 06:57:22;;;;;;;3.70;3.00;;;9.10;99.90;;;;;;5032373;28;20250;-65
2023/10/29 06:59:51;;;;;;;2.53;2.30;;;9.10;99.90;;;;;;5029706;28;20198;-65
2023/10/29 07:02:19;;;;;;;3.43;2.40;;;9.00;99.90;;;;;;5028528;28;20561;-65
2023/10/29 07:04:46;;;;;;;3.40;3.00;;;9.10;99.90;;;;;;5027207;28;20518;-65
2023/10/29 07:07:13;;;;;;;4.83;3.30;;;9.10;99.90;;;;;;5027773;28;20597;-65
2023/10/29 07:09:40;;;;;;;3.23;2.93;;;9.10;99.90;;;;;;5011668;28;20251;-65
2023/10/29 07:12:08;;;;;;;3.40;3.00;;;9.10;99.90;;;;;;5006224;28;20230;-66
2023/10/29 07:14:36;;;;;;;3.47;3.17;;;9.10;99.90;;;;;;5026543;28;20204;-65
2023/10/29 07:17:04;;;;;;;3.30;3.00;;;9.10;99.90;;;;;;5009705;28;20574;-65
2023/10/29 07:19:31;;;;;;;3.40;3.10;;;9.10;99.90;;;;;;5029485;28;20198;-65
2023/10/29 07:21:58;;;;;;;4.40;3.53;;;9.10;99.90;;;;;;5027673;28;20207;-65
2023/10/29 07:24:26;;;;;;;3.30;3.00;;;9.00;99.90;;;;;;5029257;28;20241;-65
2023/10/29 07:26:53;;;;;;;2.83;2.50;;;9.00;99.90;;;;;;5028049;28;20495;-65
2023/10/29 07:29:20;;;;;;;4.83;2.47;;;9.10;99.90;;;;;;5029605;28;20665;-65
2023/10/29 07:31:49;;;;;;;2.70;2.50;;;9.10;99.90;;;;;;5027580;28;20199;-65
2023/10/29 07:34:16;;;;;;;3.40;3.10;;;9.10;99.90;;;;;;5026962;28;20198;-65
2023/10/29 07:36:44;;;;;;;3.67;3.37;;;9.10;99.90;;;;;;5028163;28;20198;-65
2023/10/29 07:39:11;;;;;;;3.50;3.17;;;9.10;99.90;;;;;;5029709;28;20255;-65
2023/10/29 07:41:38;;;;;;;3.37;3.07;;;9.10;99.90;;;;;;5013463;28;20276;-65
2023/10/29 07:44:05;;;;;;;4.40;3.40;;;9.10;99.90;;;;;;5037748;28;20286;-65
2023/10/29 07:46:32;;;;;;;4.83;3.73;;;9.00;99.90;;;;;;5027670;28;20229;-64
2023/10/29 07:49:02;;;;;;;3.83;3.47;;;9.00;99.90;;;;;;5010597;28;20214;-64
2023/10/29 07:51:30;;;;;;;4.70;3.33;;;9.00;99.90;;;;;;5017335;28;20196;-65
2023/10/29 07:53:57;;;;;;;4.57;3.47;;;9.00;99.90;;;;;;5027737;28;20335;-64
2023/10/29 07:56:24;;;;;;;4.43;3.23;;;9.00;99.90;;;;;;5028478;28;20197;-65
2023/10/29 07:58:51;;;;;;;3.37;3.07;;;9.00;99.90;;;;;;5021522;28;20212;-65
2023/10/29 08:01:19;;;;;;;3.73;2.83;;;8.90;99.90;;;;;;5024885;28;20184;-64
2023/10/29 08:03:48;;;;;;;3.53;3.23;;;9.00;99.90;;;;;;5023948;28;20209;-64
2023/10/29 08:06:16;;;;;;;4.13;3.37;;;9.00;99.90;;;;;;5028751;28;20246;-64
2023/10/29 08:08:44;;;;;;;3.20;2.90;;;9.00;99.90;;;;;;5027650;28;20257;-64
2023/10/29 08:11:19;;;;;;;3.63;2.70;;;9.00;99.90;;;;;;5009797;28;20404;-65
2023/10/29 08:13:46;;;;;;;3.23;2.93;;;9.00;99.90;;;;;;5027811;28;20203;-64
2023/10/29 08:16:13;;;;;;;3.90;3.10;;;9.00;99.90;;;;;;5026274;28;20229;-64
2023/10/29 08:18:41;;;;;;;2.60;2.40;;;9.00;99.90;;;;;;5028970;28;20578;-64
2023/10/29 08:21:08;;;;;;;4.03;3.10;;;9.00;99.90;;;;;;5027644;28;20224;-64
2023/10/29 08:23:36;;;;;;;2.80;2.60;;;9.10;99.90;;;;;;5027778;28;20565;-64
2023/10/29 08:26:04;;;;;;;4.50;3.67;;;9.10;99.90;;;;;;5030695;28;20212;-64
2023/10/29 08:28:31;;;;;;;6.97;3.53;;;9.10;99.90;;;;;;5031385;28;20549;-65
2023/10/29 08:30:58;;;;;;;3.67;3.10;;;9.10;99.90;;;;;;5030058;28;20229;-64
2023/10/29 08:33:26;;;;;;;5.40;3.70;;;9.10;99.90;;;;;;5012414;28;20623;-65
2023/10/29 08:35:53;;;;;;;3.40;3.00;;;9.10;99.90;;;;;;5030610;28;20201;-64
2023/10/29 08:38:20;;;;;;;3.10;2.83;;;9.10;99.90;;;;;;5022475;28;20313;-65
2023/10/29 08:40:49;;;;;;;2.97;2.57;;;9.10;99.90;;;;;;5013623;28;20570;-64
2023/10/29 08:43:16;;;;;;;2.60;2.33;;;9.20;99.90;;;;;;5031608;28;20198;-64
2023/10/29 08:45:43;;;;;;;4.23;1.80;;;9.20;99.90;;;;;;5007308;28;20241;-64
2023/10/29 08:48:11;;;;;;;2.77;2.07;;;9.30;99.90;;;;;;5029864;28;20297;-64
2023/10/29 08:50:38;;;;;;;3.67;2.70;;;9.30;99.90;;;;;;5029158;28;20204;-64
2023/10/29 08:53:05;;;;;;;4.30;3.57;;;9.30;99.90;;;;;;5028861;28;20206;-64
2023/10/29 08:55:34;;;;;;;4.50;3.30;;;9.20;99.90;;;;;;5028058;28;20229;-64
2023/10/29 08:58:03;;;;;;;3.27;2.90;;;9.20;99.90;;;;;;5029708;28;20212;-64
2023/10/29 09:00:30;;;;;;;5.27;4.10;;;9.20;99.90;;;;;;5027992;28;20194;-64
2023/10/29 09:02:57;;;;;;;4.63;3.47;;;9.10;99.90;;;;;;5028960;28;20206;-64
2023/10/29 09:05:24;;;;;;;4.27;3.53;;;9.20;99.90;;;;;;5026369;28;20212;-64
2023/10/29 09:07:52;;;;;;;4.63;3.47;;;9.10;99.90;;;;;;5012238;28;20333;-64
2023/10/29 09:10:19;;;;;;;4.23;3.23;;;9.10;99.90;;;;;;5011457;28;20682;-65
2023/10/29 09:12:47;;;;;;;3.30;2.93;;;9.10;99.90;;;;;;5013169;28;20216;-65
2023/10/29 09:15:15;;;;;;;3.33;3.03;;;9.10;99.90;;;;;;5009273;28;20207;-65
2023/10/29 09:17:42;;;;;;;2.87;2.40;;;9.10;99.90;;;;;;5029513;28;20324;-65
2023/10/29 09:20:12;;;;;;;2.83;2.53;;;9.10;99.90;;;;;;5011590;28;20243;-64
2023/10/29 09:22:41;;;;;;;3.17;2.50;;;9.10;99.90;;;;;;5029719;28;20202;-65
2023/10/29 09:25:09;;;;;;;3.90;3.50;;;9.10;99.90;;;;;;5024887;28;21130;-65
2023/10/29 09:27:36;;;;;;;4.10;3.10;;;9.20;99.90;;;;;;5026101;28;20212;-65
2023/10/29 09:30:03;;;;;;;3.53;2.83;;;9.10;99.90;;;;;;5030657;28;20240;-64
2023/10/29 09:32:34;;;;;;;2.90;2.60;;;9.10;99.90;;;;;;5011988;28;20236;-64
2023/10/29 09:35:04;;;;;;;3.77;2.90;;;9.10;99.90;;;;;;5026835;28;20206;-65
2023/10/29 09:37:34;;;;;;;3.13;2.83;;;9.20;99.90;;;;;;5029580;28;20193;-65
2023/10/29 09:40:02;;;;;;;3.23;2.90;;;9.20;99.90;;;;;;5029052;28;20268;-65
2023/10/29 09:42:32;;;;;;;2.73;2.40;;;9.20;99.90;;;;;;5029624;28;20202;-65
2023/10/29 09:45:02;;;;;;;2.60;2.30;;;9.20;99.90;;;;;;5027703;28;20201;-64
2023/10/29 09:47:32;;;;;;;6.03;4.10;;;9.20;99.90;;;;;;5029611;28;20224;-64
2023/10/29 09:49:59;;;;;;;5.20;3.80;;;9.20;99.90;;;;;;5029288;28;20252;-65
2023/10/29 09:52:29;;;;;;;5.47;4.43;;;9.20;99.90;;;;;;5029659;28;20680;-64
2023/10/29 09:54:58;;;;;;;4.87;3.87;;;9.20;99.90;;;;;;5028830;28;20305;-64
2023/10/29 09:57:27;;;;;;;5.17;3.97;;;9.20;99.90;;;;;;5023336;28;20394;-63
2023/10/29 09:59:54;;;;;;;5.90;4.07;;;9.20;99.90;;;;;;5010237;28;20210;-64
2023/10/29 10:02:22;;;;;;;6.07;4.63;;;8.30;99.90;;;;;;5029497;28;20650;-64
2023/10/29 10:04:52;;;;;;;7.47;5.30;;;9.20;99.90;;;;;;5029201;28;20273;-63
2023/10/29 10:07:20;;;;;;;6.13;4.73;;;9.10;99.90;;;;;;5028244;28;20233;-64
2023/10/29 10:09:52;;;;;;;6.57;4.70;;;9.10;99.90;;;;;;5029783;28;20209;-65
2023/10/29 10:12:20;;;;;;;4.87;4.20;;;9.10;99.90;;;;;;5028275;28;20212;-64
2023/10/29 10:14:48;;;;;;;6.33;4.33;;;9.10;99.90;;;;;;5011521;28;20204;-64
2023/10/29 10:17:15;;;;;;;9.77;5.40;;;9.10;99.90;;;;;;5027856;28;20240;-64
2023/10/29 10:19:42;;;;;;;10.13;5.73;;;9.10;99.90;;;;;;5029405;28;20744;-64
2023/10/29 10:22:10;;;;;;;9.50;5.83;;;9.10;99.90;;;;;;5027993;28;20237;-64
2023/10/29 10:24:39;;;;;;;9.47;5.50;;;9.00;99.90;;;;;;5029021;28;20198;-64
2023/10/29 10:27:06;;;;;;;9.13;6.33;;;9.10;99.90;;;;;;5027576;28;20208;-64
2023/10/29 10:29:34;;;;;;;8.97;5.73;;;9.10;99.90;;;;;;5028670;28;20231;-65
2023/10/29 10:32:02;;;;;;;9.70;6.23;;;9.00;99.90;;;;;;5000642;28;20297;-64
2023/10/29 10:34:31;;;;;;;8.50;5.33;;;9.10;99.90;;;;;;5023301;28;20741;-64
2023/10/29 10:37:00;;;;;;;8.87;6.10;;;9.10;99.90;;;;;;5003535;28;20203;-64
2023/10/29 10:39:31;;;;;;;10.30;6.33;;;9.10;99.90;;;;;;5010165;28;20670;-64
2023/10/29 10:42:00;;;;;;;10.47;6.37;;;9.10;99.90;;;;;;5028081;28;20201;-64
2023/10/29 10:44:29;;;;;;;5.57;4.53;;;9.10;99.90;;;;;;5008004;28;20206;-65
2023/10/29 10:46:58;;;;;;;9.53;6.67;;;9.10;99.90;;;;;;5019818;28;20228;-64
2023/10/29 10:49:26;;;;;;;11.33;6.80;;;9.10;99.90;;;;;;5026913;28;20252;-64
2023/10/29 10:51:55;;;;;;;10.67;6.50;;;9.10;99.90;;;;;;5027166;28;20201;-64
2023/10/29 10:54:23;;;;;;;8.80;5.60;;;9.10;99.90;;;;;;5025507;28;20221;-64
2023/10/29 10:56:53;;;;;;;11.23;6.47;;;9.10;99.90;;;;;;5030354;28;20187;-64
2023/10/29 10:59:23;;;;;;;7.67;5.30;;;9.10;99.90;;;;;;5027761;28;20729;-64
2023/10/29 11:01:50;;;;;;;7.80;5.50;;;9.10;99.90;;;;;;5027364;28;20662;-65
2023/10/29 11:04:18;;;;;;;10.20;6.33;;;9.10;99.90;;;;;;5027430;28;20577;-65
2023/10/29 11:06:46;;;;;;;6.10;4.80;;;9.10;99.90;;;;;;5026900;28;20508;-65
2023/10/29 11:09:17;;;;;;;9.37;5.67;;;9.10;99.90;;;;;;5027851;28;20212;-65
2023/10/29 11:11:47;;;;;;;8.67;5.30;;;9.10;99.90;;;;;;5025584;28;20194;-65
2023/10/29 11:14:17;;;;;;;7.20;4.77;;;9.20;99.90;;;;;;5025635;28;20606;-65
2023/10/29 11:16:49;;;;;;;10.13;6.10;;;9.20;99.90;;;;;;5008305;28;20201;-65
2023/10/29 11:19:39;;;;;;;9.93;6.67;;;9.20;99.90;;;;;;5027449;28;20661;-65
2023/10/29 11:22:17;;;;;;;10.77;6.53;;;9.20;99.90;;;;;;5026336;28;20201;-65
2023/10/29 11:24:45;;;;;;;12.03;6.30;;;9.20;99.90;;;;;;5027559;28;20189;-65
2023/10/29 11:27:38;;;;;;;10.13;6.13;;;9.20;99.90;;;;;;5008509;28;20312;-65
2023/10/29 11:30:14;;;;;;;6.67;5.00;;;9.20;99.90;;;;;;5023991;28;20703;-65
2023/10/29 11:32:42;;;;;;;10.27;6.53;;;9.20;99.90;;;;;;5027216;28;20206;-65
2023/10/29 11:35:22;;;;;;;10.93;6.23;;;9.20;99.90;;;;;;5008315;28;20305;-65
2023/10/29 11:37:52;;;;;;;11.70;6.97;;;9.20;99.90;;;;;;5021310;28;20704;-65
2023/10/29 11:40:36;;;;;;;11.10;6.60;;;9.20;99.90;;;;;;5031402;28;20665;-65
2023/10/29 11:43:20;;;;;;;11.57;6.57;;;9.20;99.90;;;;;;5019590;28;20271;-65
2023/10/29 11:45:58;;;;;;;11.27;6.63;;;9.20;99.90;;;;;;5022557;28;20241;-65
2023/10/29 11:48:26;;;;;;;14.93;8.70;;;9.10;99.90;;;;;;5027359;28;20649;-65
2023/10/29 11:51:18;;;;;;;15.73;8.30;;;9.20;99.90;;;;;;5025680;28;20673;-65
2023/10/29 11:53:46;;;;;;;12.30;6.97;;;9.20;99.90;;;;;;5007429;28;20723;-63
2023/10/29 11:56:13;;;;;;;13.33;7.87;;;9.20;99.90;;;;;;5007512;28;20737;-65
2023/10/29 11:58:40;;;;;;;14.03;7.57;;;9.20;99.90;;;;;;5030204;28;20194;-64
2023/10/29 12:01:09;;;;;;;14.27;8.20;;;9.20;99.90;;;;;;5030909;28;20232;-64
2023/10/29 12:03:36;;;;;;;10.50;7.23;;;9.20;99.90;;;;;;5030646;28;20221;-64
2023/10/29 12:06:04;;;;;;;13.40;7.70;;;9.20;99.90;;;;;;5012712;28;20763;-64
2023/10/29 12:08:32;;;;;;;9.90;6.40;;;9.20;99.90;;;;;;5030797;28;20249;-64
2023/10/29 12:11:00;;;;;;;10.67;6.77;;;9.20;99.90;;;;;;5030706;28;20208;-64
2023/10/29 12:13:42;;;;;;;12.10;6.47;;;9.20;99.90;;;;;;5028558;28;20267;-64
2023/10/29 12:16:12;;;;;;;11.47;6.57;;;9.20;99.90;;;;;;5021190;28;20201;-64
2023/10/29 12:18:40;;;;;;;11.33;7.27;;;9.20;99.90;;;;;;5030550;28;20268;-64
2023/10/29 12:21:09;;;;;;;12.87;6.97;;;9.20;99.90;;;;;;5022232;28;20225;-64
2023/10/29 12:23:36;;;;;;;10.87;6.37;;;9.20;99.90;;;;;;5029616;28;20215;-64
2023/10/29 12:26:06;;;;;;;8.30;5.37;;;9.20;99.90;;;;;;5030146;28;20320;-64
2023/10/29 12:28:36;;;;;;;9.50;5.53;;;9.20;99.90;;;;;;5015803;28;20207;-65
2023/10/29 12:31:03;;;;;;;14.07;8.43;;;9.30;99.90;;;;;;5029169;28;20554;-66
2023/10/29 12:33:34;;;;;;;17.70;9.13;;;9.30;99.90;;;;;;5030756;28;20201;-65
2023/10/29 12:36:03;;;;;;;20.43;8.50;;;9.20;99.90;;;;;;5029942;28;20218;-65
2023/10/29 12:38:30;;;;;;;13.87;8.40;;;9.20;99.90;;;;;;5027904;28;20279;-64
2023/10/29 12:41:06;;;;;;;17.30;9.63;;;9.30;99.90;;;;;;5025128;28;20257;-65
2023/10/29 12:43:36;;;;;;;16.67;8.80;;;9.30;99.90;;;;;;5013773;28;20193;-64
2023/10/29 12:46:05;;;;;;;16.00;8.87;;;9.30;99.90;;;;;;5002688;28;20218;-64
2023/10/29 12:48:35;;;;;;;14.57;8.37;;;9.30;99.90;;;;;;5029941;28;20205;-64
2023/10/29 12:51:02;;;;;;;13.70;8.13;;;9.30;99.90;;;;;;5024587;28;20244;-64
2023/10/29 12:53:30;;;;;;;18.27;8.50;;;9.30;99.90;;;;;;5022702;28;20594;-64
2023/10/29 12:55:59;;;;;;;15.30;8.20;;;9.30;99.90;;;;;;5029588;28;20210;-64
2023/10/29 12:58:28;;;;;;;15.73;8.50;;;9.30;99.90;;;;;;5009104;28;20270;-64
2023/10/29 13:00:59;;;;;;;12.50;7.80;;;9.30;99.90;;;;;;5028893;28;20210;-64